Time,TemperatureF,DewpointF,PressureIn,WindDirection,WindDirectionDegrees,WindSpeedMPH,WindSpeedGustMPH,Humidity,HourlyPrecipIn,Conditions,Clouds,dailyrainin,SoftwareType,DateUTC
2013-03-13 00:00:00,43.0,37.8,29.93,ENE,67,2.2,3.1,76,0.00,,,0.17,fowsr,2013-03-13 04:00:00,
2013-03-13 00:05:00,43.0,37.8,29.93,North,0,3.1,6.0,76,0.00,,,0.17,fowsr,2013-03-13 04:05:00,
2013-03-13 00:10:00,42.8,37.6,29.93,East,90,3.1,5.4,76,0.00,,,0.17,fowsr,2013-03-13 04:10:00,
2013-03-13 00:15:00,42.8,37.4,29.93,East,90,3.1,6.0,75,0.00,,,0.17,fowsr,2013-03-13 04:15:00,
2013-03-13 00:20:00,42.8,37.1,29.93,South,180,2.2,5.4,74,0.00,,,0.17,fowsr,2013-03-13 04:20:00,
2013-03-13 00:25:00,42.8,37.1,29.93,North,0,3.1,4.5,74,0.00,,,0.17,fowsr,2013-03-13 04:25:00,
2013-03-13 00:30:00,42.8,37.1,29.93,SE,135,3.1,8.3,74,0.00,,,0.17,fowsr,2013-03-13 04:30:00,
2013-03-13 00:35:00,42.6,37.2,29.93,ESE,112,0.7,2.2,75,0.00,,,0.17,fowsr,2013-03-13 04:35:00,
2013-03-13 00:40:00,42.4,37.3,29.93,SSW,202,2.2,5.4,76,0.00,,,0.17,fowsr,2013-03-13 04:40:00,
2013-03-13 00:45:00,42.3,37.1,29.94,NE,45,3.1,3.8,76,0.00,,,0.17,fowsr,2013-03-13 04:45:00,
2013-03-13 00:50:00,42.3,36.9,29.94,SE,135,2.2,4.5,75,0.00,,,0.17,fowsr,2013-03-13 04:50:00,
2013-03-13 00:55:00,42.3,36.9,29.94,NE,45,2.2,5.4,75,0.00,,,0.17,fowsr,2013-03-13 04:55:00,
2013-03-13 01:00:00,42.3,36.9,29.94,East,90,3.1,8.3,75,0.00,,,0.17,fowsr,2013-03-13 05:00:00,
2013-03-13 01:05:00,42.3,36.9,29.95,East,90,2.2,4.5,75,0.00,,,0.17,fowsr,2013-03-13 05:05:00,
2013-03-13 01:10:00,42.3,36.6,29.94,South,180,1.6,3.1,74,0.00,,,0.17,fowsr,2013-03-13 05:10:00,
2013-03-13 01:15:00,42.3,36.6,29.94,South,180,2.2,3.1,74,0.00,,,0.17,fowsr,2013-03-13 05:15:00,
2013-03-13 01:20:00,42.3,36.6,29.94,SE,135,2.2,4.5,74,0.00,,,0.17,fowsr,2013-03-13 05:20:00,
2013-03-13 01:25:00,42.1,36.5,29.95,South,180,4.5,6.0,74,0.00,,,0.17,fowsr,2013-03-13 05:25:00,
2013-03-13 01:30:00,42.1,36.5,29.94,South,180,3.1,4.5,74,0.00,,,0.17,fowsr,2013-03-13 05:30:00,
2013-03-13 01:35:00,42.1,36.5,29.95,NW,315,0.7,3.1,74,0.00,,,0.17,fowsr,2013-03-13 05:35:00,
2013-03-13 01:40:00,42.1,36.5,29.95,NW,315,2.2,4.5,74,0.00,,,0.17,fowsr,2013-03-13 05:40:00,
2013-03-13 01:45:00,42.1,36.5,29.95,East,90,3.8,5.4,74,0.00,,,0.17,fowsr,2013-03-13 05:45:00,
2013-03-13 01:50:00,42.1,36.5,29.95,East,90,2.2,5.4,74,0.00,,,0.17,fowsr,2013-03-13 05:50:00,
2013-03-13 01:55:00,41.9,36.3,29.95,NE,45,3.1,4.5,74,0.00,,,0.17,fowsr,2013-03-13 05:55:00,
2013-03-13 02:00:00,41.9,36.3,29.95,East,90,2.2,4.5,74,0.00,,,0.17,fowsr,2013-03-13 06:00:00,
2013-03-13 02:05:00,41.9,36.3,29.95,SSW,202,2.2,5.4,74,0.00,,,0.17,fowsr,2013-03-13 06:05:00,
2013-03-13 02:10:00,41.9,36.3,29.95,NE,45,1.6,5.4,74,0.00,,,0.17,fowsr,2013-03-13 06:10:00,
2013-03-13 02:15:00,41.9,36.3,29.95,South,180,6.0,12.1,74,0.00,,,0.17,fowsr,2013-03-13 06:15:00,
2013-03-13 02:20:00,41.9,36.0,29.95,East,90,4.5,8.3,73,0.00,,,0.17,fowsr,2013-03-13 06:20:00,
2013-03-13 02:25:00,41.9,35.5,29.95,SW,225,3.8,9.8,71,0.00,,,0.17,fowsr,2013-03-13 06:25:00,
2013-03-13 02:30:00,41.9,35.3,29.95,SW,225,3.8,8.3,70,0.00,,,0.17,fowsr,2013-03-13 06:30:00,
2013-03-13 02:35:00,41.9,35.3,29.95,South,180,3.1,6.9,70,0.00,,,0.17,fowsr,2013-03-13 06:35:00,
2013-03-13 02:40:00,41.9,35.0,29.95,SE,135,4.5,7.6,69,0.00,,,0.17,fowsr,2013-03-13 06:40:00,
2013-03-13 02:45:00,41.7,34.8,29.95,NE,45,2.2,4.5,69,0.00,,,0.17,fowsr,2013-03-13 06:45:00,
2013-03-13 02:50:00,41.7,34.8,29.95,NE,45,4.5,6.9,69,0.00,,,0.17,fowsr,2013-03-13 06:50:00,
2013-03-13 02:55:00,41.7,34.8,29.95,South,180,1.6,4.5,69,0.00,,,0.17,fowsr,2013-03-13 06:55:00,
2013-03-13 03:00:00,41.7,34.8,29.95,East,90,3.8,7.6,69,0.00,,,0.17,fowsr,2013-03-13 07:00:00,
2013-03-13 03:05:00,41.7,34.8,29.96,SW,225,5.4,8.3,69,0.00,,,0.17,fowsr,2013-03-13 07:05:00,
2013-03-13 03:10:00,41.5,34.7,29.96,East,90,4.5,11.4,69,0.00,,,0.17,fowsr,2013-03-13 07:10:00,
2013-03-13 03:20:00,41.5,34.9,29.96,SE,135,3.1,3.8,70,0.00,,,0.17,fowsr,2013-03-13 07:20:00,
2013-03-13 03:25:00,41.5,34.9,29.96,West,270,3.1,6.0,70,0.00,,,0.17,fowsr,2013-03-13 07:25:00,
2013-03-13 03:30:00,41.5,34.9,29.96,SE,135,3.1,6.0,70,0.00,,,0.17,fowsr,2013-03-13 07:30:00,
2013-03-13 03:35:00,41.5,35.2,29.96,ENE,67,2.2,6.0,71,0.00,,,0.17,fowsr,2013-03-13 07:35:00,
2013-03-13 03:40:00,41.4,35.0,29.96,East,90,3.1,9.2,71,0.00,,,0.17,fowsr,2013-03-13 07:40:00,
2013-03-13 03:45:00,41.4,35.0,29.96,SE,135,3.8,6.9,71,0.00,,,0.17,fowsr,2013-03-13 07:45:00,
2013-03-13 03:50:00,41.4,35.0,29.95,SE,135,2.2,5.4,71,0.00,,,0.17,fowsr,2013-03-13 07:50:00,
2013-03-13 04:00:00,41.4,35.0,29.95,SE,135,3.8,5.4,71,0.00,,,0.17,fowsr,2013-03-13 08:00:00,
2013-03-13 04:05:00,41.4,34.8,29.95,SW,225,1.6,3.1,70,0.00,,,0.17,fowsr,2013-03-13 08:05:00,
2013-03-13 04:10:00,41.4,34.2,29.95,NW,315,4.5,6.9,68,0.00,,,0.17,fowsr,2013-03-13 08:10:00,
2013-03-13 04:15:00,41.4,34.2,29.95,North,0,2.2,3.8,68,0.00,,,0.17,fowsr,2013-03-13 08:15:00,
2013-03-13 04:20:00,41.4,34.0,29.96,NNE,22,3.8,7.6,67,0.00,,,0.17,fowsr,2013-03-13 08:20:00,
2013-03-13 04:25:00,41.4,34.0,29.96,SW,225,3.8,5.4,67,0.00,,,0.17,fowsr,2013-03-13 08:25:00,
2013-03-13 04:30:00,41.4,34.0,29.96,East,90,3.8,7.6,67,0.00,,,0.17,fowsr,2013-03-13 08:30:00,
2013-03-13 04:35:00,41.4,34.2,29.96,NE,45,2.2,3.8,68,0.00,,,0.17,fowsr,2013-03-13 08:35:00,
2013-03-13 04:40:00,41.4,34.2,29.96,NE,45,1.6,3.1,68,0.00,,,0.17,fowsr,2013-03-13 08:40:00,
2013-03-13 04:45:00,41.2,34.6,29.97,SW,225,0.7,2.2,70,0.00,,,0.17,fowsr,2013-03-13 08:45:00,
2013-03-13 04:50:00,41.2,34.6,29.97,SSE,157,1.6,3.1,70,0.00,,,0.17,fowsr,2013-03-13 08:50:00,
2013-03-13 04:55:00,41.2,34.8,29.97,East,90,1.6,2.2,71,0.00,,,0.17,fowsr,2013-03-13 08:55:00,
2013-03-13 05:00:00,41.0,34.9,29.97,East,90,3.1,6.0,72,0.00,,,0.17,fowsr,2013-03-13 09:00:00,
2013-03-13 05:10:00,40.8,35.0,29.98,SSE,157,0.7,2.2,73,0.00,,,0.17,fowsr,2013-03-13 09:10:00,
2013-03-13 05:15:00,40.8,35.0,29.98,NW,315,1.6,3.8,73,0.00,,,0.17,fowsr,2013-03-13 09:15:00,
2013-03-13 05:20:00,40.8,35.0,29.98,SE,135,3.1,5.4,73,0.00,,,0.17,fowsr,2013-03-13 09:20:00,
2013-03-13 05:25:00,40.6,34.8,29.98,South,180,3.1,4.5,73,0.00,,,0.17,fowsr,2013-03-13 09:25:00,
2013-03-13 05:30:00,40.8,35.0,29.98,South,180,2.2,3.1,73,0.00,,,0.17,fowsr,2013-03-13 09:30:00,
2013-03-13 05:40:00,40.6,34.8,29.98,SE,135,0.7,3.8,73,0.00,,,0.17,fowsr,2013-03-13 09:40:00,
2013-03-13 05:45:00,40.6,34.8,29.99,SE,135,2.2,3.8,73,0.00,,,0.17,fowsr,2013-03-13 09:45:00,
2013-03-13 05:50:00,40.6,34.8,29.99,SE,135,2.2,5.4,73,0.00,,,0.17,fowsr,2013-03-13 09:50:00,
2013-03-13 05:55:00,40.6,34.8,29.98,South,180,3.1,4.5,73,0.00,,,0.17,fowsr,2013-03-13 09:55:00,
2013-03-13 06:00:00,40.6,34.8,29.98,SE,135,4.5,7.6,73,0.00,,,0.17,fowsr,2013-03-13 10:00:00,
2013-03-13 06:05:00,40.6,34.8,29.98,NE,45,2.2,4.5,73,0.00,,,0.17,fowsr,2013-03-13 10:05:00,
2013-03-13 06:10:00,40.6,34.8,29.98,SE,135,2.2,4.5,73,0.00,,,0.17,fowsr,2013-03-13 10:10:00,
2013-03-13 06:15:00,40.5,34.7,29.98,SE,135,3.1,6.9,73,0.00,,,0.17,fowsr,2013-03-13 10:15:00,
2013-03-13 06:20:00,40.5,34.4,29.98,WNW,292,0.7,1.6,72,0.00,,,0.17,fowsr,2013-03-13 10:20:00,
2013-03-13 06:25:00,40.3,34.2,29.98,East,90,2.2,5.4,72,0.00,,,0.17,fowsr,2013-03-13 10:25:00,
2013-03-13 06:30:00,40.3,34.0,29.99,SE,135,1.6,3.8,71,0.00,,,0.17,fowsr,2013-03-13 10:30:00,
2013-03-13 06:35:00,40.1,33.8,29.98,SE,135,1.6,3.8,71,0.00,,,0.17,fowsr,2013-03-13 10:35:00,
2013-03-13 06:40:00,40.1,33.8,29.99,SE,135,3.1,9.2,71,0.00,,,0.17,fowsr,2013-03-13 10:40:00,
2013-03-13 06:45:00,40.3,33.7,29.99,SE,135,1.6,5.4,70,0.00,,,0.17,fowsr,2013-03-13 10:45:00,
2013-03-13 06:50:00,40.5,33.9,29.98,SW,225,0.7,2.2,70,0.00,,,0.17,fowsr,2013-03-13 10:50:00,
2013-03-13 06:55:00,40.5,33.9,29.98,SE,135,0.7,2.2,70,0.00,,,0.17,fowsr,2013-03-13 10:55:00,
2013-03-13 07:00:00,40.3,33.7,29.98,East,90,1.6,3.8,70,0.00,,,0.17,fowsr,2013-03-13 11:00:00,
2013-03-13 07:05:00,40.3,34.0,29.99,SE,135,1.6,4.5,71,0.00,,,0.17,fowsr,2013-03-13 11:05:00,
2013-03-13 07:10:00,40.3,33.7,29.99,SE,135,1.6,2.2,70,0.00,,,0.17,fowsr,2013-03-13 11:10:00,
2013-03-13 07:15:00,40.5,33.9,29.99,South,180,2.2,3.8,70,0.00,,,0.17,fowsr,2013-03-13 11:15:00,
2013-03-13 07:20:00,40.5,34.2,29.99,East,90,2.2,3.8,71,0.00,,,0.17,fowsr,2013-03-13 11:20:00,
2013-03-13 07:25:00,40.5,34.2,29.99,East,90,4.5,6.0,71,0.00,,,0.17,fowsr,2013-03-13 11:25:00,
2013-03-13 07:30:00,40.5,34.2,29.99,East,90,2.2,4.5,71,0.00,,,0.17,fowsr,2013-03-13 11:30:00,
2013-03-13 07:35:00,40.5,34.2,29.99,East,90,0.7,3.1,71,0.00,,,0.17,fowsr,2013-03-13 11:35:00,
2013-03-13 07:40:00,40.5,34.2,29.99,ESE,112,1.6,3.8,71,0.00,,,0.17,fowsr,2013-03-13 11:40:00,
2013-03-13 07:45:00,40.6,34.6,29.99,East,90,3.1,4.5,72,0.00,,,0.17,fowsr,2013-03-13 11:45:00,
2013-03-13 07:50:00,40.8,34.7,29.99,SE,135,1.6,2.2,72,0.00,,,0.17,fowsr,2013-03-13 11:50:00,
2013-03-13 07:55:00,40.8,34.5,29.99,SE,135,0.7,2.2,71,0.00,,,0.17,fowsr,2013-03-13 11:55:00,
2013-03-13 08:00:00,41.0,34.4,29.99,SE,135,0.7,3.1,70,0.00,,,0.17,fowsr,2013-03-13 12:00:00,
2013-03-13 08:05:00,41.0,34.4,29.99,South,180,2.2,3.8,70,0.00,,,0.17,fowsr,2013-03-13 12:05:00,
2013-03-13 08:10:00,41.0,34.4,29.99,NNE,22,4.5,7.6,70,0.00,,,0.17,fowsr,2013-03-13 12:10:00,
2013-03-13 08:15:00,41.2,34.3,29.99,East,90,1.6,3.8,69,0.00,,,0.17,fowsr,2013-03-13 12:15:00,
2013-03-13 08:20:00,41.2,34.3,29.99,East,90,4.5,6.0,69,0.00,,,0.17,fowsr,2013-03-13 12:20:00,
2013-03-13 08:25:00,41.4,34.5,30.00,East,90,3.1,3.8,69,0.00,,,0.17,fowsr,2013-03-13 12:25:00,
2013-03-13 08:30:00,41.5,34.9,29.99,East,90,3.8,6.0,70,0.00,,,0.15,fowsr,2013-03-13 12:30:00,
2013-03-13 08:35:00,41.7,34.8,29.99,East,90,3.8,6.0,69,0.00,,,0.15,fowsr,2013-03-13 12:35:00,
2013-03-13 08:40:00,42.1,34.9,29.99,NE,45,3.1,5.4,68,0.00,,,0.15,fowsr,2013-03-13 12:40:00,
2013-03-13 08:45:00,42.3,35.1,29.99,East,90,2.2,5.4,68,0.00,,,0.15,fowsr,2013-03-13 12:45:00,
2013-03-13 08:50:00,42.4,35.0,30.00,SE,135,3.8,6.9,67,0.00,,,0.15,fowsr,2013-03-13 12:50:00,
2013-03-13 08:55:00,42.8,34.8,29.99,East,90,2.2,6.0,65,0.00,,,0.15,fowsr,2013-03-13 12:55:00,
2013-03-13 09:00:00,43.0,34.7,30.00,East,90,3.1,5.4,64,0.00,,,0.15,fowsr,2013-03-13 13:00:00,
2013-03-13 09:05:00,43.0,34.7,30.00,ENE,67,3.8,5.4,64,0.00,,,0.15,fowsr,2013-03-13 13:05:00,
2013-03-13 09:10:00,43.3,35.3,30.00,East,90,4.5,7.6,65,0.00,,,0.15,fowsr,2013-03-13 13:10:00,
2013-03-13 09:20:00,43.3,35.0,30.00,NE,45,2.2,3.8,64,0.00,,,0.14,fowsr,2013-03-13 13:20:00,
2013-03-13 09:25:00,43.5,35.2,30.00,East,90,3.8,5.4,64,0.00,,,0.14,fowsr,2013-03-13 13:25:00,
2013-03-13 09:30:00,43.5,34.9,30.00,East,90,5.4,7.6,63,0.00,,,0.14,fowsr,2013-03-13 13:30:00,
2013-03-13 09:35:00,43.7,35.1,30.00,East,90,1.6,3.1,63,0.00,,,0.14,fowsr,2013-03-13 13:35:00,
2013-03-13 09:40:00,43.9,35.5,30.00,East,90,2.2,3.8,64,0.00,,,0.14,fowsr,2013-03-13 13:40:00,
2013-03-13 09:45:00,44.1,35.7,30.00,East,90,4.5,6.0,64,0.00,,,0.14,fowsr,2013-03-13 13:45:00,
2013-03-13 09:50:00,43.9,35.2,30.00,SE,135,5.4,8.3,63,0.00,,,0.14,fowsr,2013-03-13 13:50:00,
2013-03-13 09:55:00,43.7,35.1,29.99,East,90,6.0,8.3,63,0.00,,,0.14,fowsr,2013-03-13 13:55:00,
2013-03-13 10:05:00,43.9,35.2,30.00,East,90,3.1,4.5,63,0.00,,,0.14,fowsr,2013-03-13 14:05:00,
2013-03-13 10:10:00,44.1,35.4,30.00,East,90,3.8,5.4,63,0.00,,,0.14,fowsr,2013-03-13 14:10:00,
2013-03-13 10:15:00,44.1,35.4,30.00,East,90,6.0,9.8,63,0.00,,,0.14,fowsr,2013-03-13 14:15:00,
2013-03-13 10:20:00,44.2,35.6,30.00,East,90,5.4,7.6,63,0.00,,,0.14,fowsr,2013-03-13 14:20:00,
2013-03-13 10:30:00,44.4,35.4,30.00,SE,135,5.4,7.6,62,0.00,,,0.14,fowsr,2013-03-13 14:30:00,
2013-03-13 10:35:00,44.6,35.6,30.00,ESE,112,2.2,4.5,62,0.00,,,0.14,fowsr,2013-03-13 14:35:00,
2013-03-13 10:40:00,44.4,35.4,29.99,East,90,4.5,6.9,62,0.00,,,0.14,fowsr,2013-03-13 14:40:00,
2013-03-13 10:45:00,44.4,35.4,29.99,South,180,3.8,5.4,62,0.00,,,0.14,fowsr,2013-03-13 14:45:00,
2013-03-13 10:50:00,44.6,35.3,29.99,East,90,3.8,5.4,61,0.00,,,0.14,fowsr,2013-03-13 14:50:00,
2013-03-13 10:55:00,44.6,35.3,29.99,SE,135,3.1,5.4,61,0.00,,,0.14,fowsr,2013-03-13 14:55:00,
2013-03-13 11:00:00,44.8,35.5,29.99,East,90,4.5,5.4,61,0.00,,,0.14,fowsr,2013-03-13 15:00:00,
2013-03-13 11:05:00,45.0,36.0,29.99,East,90,3.1,4.5,62,0.00,,,0.14,fowsr,2013-03-13 15:05:00,
2013-03-13 11:10:00,45.3,36.0,29.99,East,90,4.5,6.9,61,0.00,,,0.14,fowsr,2013-03-13 15:10:00,
2013-03-13 11:15:00,45.5,36.2,29.99,East,90,6.0,8.3,61,0.00,,,0.14,fowsr,2013-03-13 15:15:00,
2013-03-13 11:20:00,45.5,36.2,29.99,East,90,4.5,6.9,61,0.00,,,0.14,fowsr,2013-03-13 15:20:00,
2013-03-13 11:30:00,45.7,36.0,29.99,SE,135,4.5,8.3,60,0.00,,,0.13,fowsr,2013-03-13 15:30:00,
2013-03-13 11:35:00,45.7,35.1,29.99,NE,45,4.5,7.6,57,0.00,,,0.13,fowsr,2013-03-13 15:35:00,
2013-03-13 11:40:00,45.7,35.1,29.99,SE,135,3.8,6.9,57,0.00,,,0.13,fowsr,2013-03-13 15:40:00,
2013-03-13 11:45:00,45.7,35.4,29.99,SSE,157,4.5,7.6,58,0.00,,,0.13,fowsr,2013-03-13 15:45:00,
2013-03-13 11:50:00,45.7,35.4,29.98,SE,135,4.5,6.9,58,0.00,,,0.13,fowsr,2013-03-13 15:50:00,
2013-03-13 11:55:00,45.7,34.8,29.99,East,90,4.5,6.0,56,0.00,,,0.13,fowsr,2013-03-13 15:55:00,
2013-03-13 12:00:00,46.0,35.4,29.98,SE,135,3.8,6.0,57,0.00,,,0.13,fowsr,2013-03-13 16:00:00,
2013-03-13 12:10:00,46.9,36.3,29.98,SE,135,2.2,3.8,57,0.00,,,0.13,fowsr,2013-03-13 16:10:00,
2013-03-13 12:15:00,47.1,36.1,29.98,East,90,2.2,3.8,56,0.00,,,0.13,fowsr,2013-03-13 16:15:00,
2013-03-13 12:20:00,47.5,36.4,29.97,SSE,157,1.6,2.2,56,0.00,,,0.13,fowsr,2013-03-13 16:20:00,
2013-03-13 12:25:00,47.8,36.4,29.97,East,90,3.1,5.4,55,0.00,,,0.13,fowsr,2013-03-13 16:25:00,
2013-03-13 12:30:00,47.8,36.8,29.97,East,90,3.1,6.0,56,0.00,,,0.13,fowsr,2013-03-13 16:30:00,
2013-03-13 12:35:00,48.0,36.6,29.97,East,90,3.8,5.4,55,0.00,,,0.13,fowsr,2013-03-13 16:35:00,
2013-03-13 12:40:00,47.7,35.3,29.97,East,90,4.5,6.0,52,0.00,,,0.13,fowsr,2013-03-13 16:40:00,
2013-03-13 12:45:00,47.7,34.9,29.97,East,90,1.6,3.1,51,0.00,,,0.13,fowsr,2013-03-13 16:45:00,
2013-03-13 12:50:00,48.0,35.9,29.97,East,90,3.8,6.9,53,0.00,,,0.12,fowsr,2013-03-13 16:50:00,
2013-03-13 12:55:00,48.0,35.2,29.96,SE,135,1.6,3.1,51,0.00,,,0.12,fowsr,2013-03-13 16:55:00,
2013-03-13 13:05:00,48.6,34.6,29.95,South,180,0.7,2.2,48,0.00,,,0.12,fowsr,2013-03-13 17:05:00,
2013-03-13 13:10:00,49.6,35.6,29.96,East,90,3.8,5.4,48,0.00,,,0.11,fowsr,2013-03-13 17:10:00,
2013-03-13 13:20:00,48.7,34.8,29.95,East,90,3.1,5.4,48,0.00,,,0.11,fowsr,2013-03-13 17:20:00,
2013-03-13 13:25:00,49.3,35.6,29.95,South,180,1.6,3.1,49,0.00,,,0.11,fowsr,2013-03-13 17:25:00,
2013-03-13 13:30:00,50.0,36.3,29.95,South,180,1.6,3.1,49,0.00,,,0.11,fowsr,2013-03-13 17:30:00,
2013-03-13 13:35:00,50.0,35.2,29.95,East,90,3.1,3.8,46,0.00,,,0.11,fowsr,2013-03-13 17:35:00,
2013-03-13 13:40:00,48.9,34.2,29.95,East,90,2.2,3.8,46,0.00,,,0.11,fowsr,2013-03-13 17:40:00,
2013-03-13 13:45:00,49.1,33.9,29.95,East,90,3.8,5.4,45,0.00,,,0.08,fowsr,2013-03-13 17:45:00,
2013-03-13 13:50:00,48.6,33.5,29.94,East,90,3.8,5.4,45,0.00,,,0.07,fowsr,2013-03-13 17:50:00,
2013-03-13 13:55:00,47.8,33.2,29.95,East,90,1.6,3.1,46,0.00,,,0.07,fowsr,2013-03-13 17:55:00,
2013-03-13 14:00:00,48.7,34.0,29.94,East,90,2.2,3.8,46,0.00,,,0.07,fowsr,2013-03-13 18:00:00,
2013-03-13 14:05:00,48.6,34.2,29.94,SE,135,3.1,4.5,47,0.00,,,0.06,fowsr,2013-03-13 18:05:00,
2013-03-13 14:10:00,48.7,34.4,29.94,East,90,3.1,3.8,47,0.00,,,0.05,fowsr,2013-03-13 18:10:00,
2013-03-13 14:15:00,48.2,33.1,29.94,East,90,3.1,4.5,45,0.00,,,0.05,fowsr,2013-03-13 18:15:00,
2013-03-13 14:20:00,48.0,33.0,29.94,East,90,3.1,4.5,45,0.00,,,0.04,fowsr,2013-03-13 18:20:00,
2013-03-13 14:25:00,48.4,33.3,29.93,East,90,2.2,3.8,45,0.00,,,0.04,fowsr,2013-03-13 18:25:00,
2013-03-13 14:30:00,48.2,32.7,29.93,East,90,3.1,4.5,44,0.00,,,0.04,fowsr,2013-03-13 18:30:00,
2013-03-13 14:35:00,48.6,33.5,29.93,East,90,2.2,3.8,45,0.00,,,0.04,fowsr,2013-03-13 18:35:00,
2013-03-13 14:45:00,49.5,33.9,29.93,East,90,3.8,6.0,44,0.00,,,0.04,fowsr,2013-03-13 18:45:00,
2013-03-13 14:50:00,48.6,32.6,29.93,SE,135,2.2,3.1,43,0.00,,,0.02,fowsr,2013-03-13 18:50:00,
2013-03-13 14:55:00,49.5,33.9,29.92,SW,225,2.2,3.8,44,0.00,,,0.02,fowsr,2013-03-13 18:55:00,
2013-03-13 15:00:00,50.4,34.3,29.92,NE,45,1.6,4.5,43,0.00,,,0.02,fowsr,2013-03-13 19:00:00,
2013-03-13 15:05:00,50.0,33.9,29.92,East,90,3.8,6.0,43,0.00,,,0.02,fowsr,2013-03-13 19:05:00,
2013-03-13 15:10:00,48.7,33.2,29.92,SE,135,0.7,3.1,44,0.00,,,0.02,fowsr,2013-03-13 19:10:00,
2013-03-13 15:15:00,48.4,33.3,29.92,NE,45,1.6,3.8,45,0.00,,,0.02,fowsr,2013-03-13 19:15:00,
2013-03-13 15:20:00,48.7,34.4,29.91,SW,225,3.1,3.8,47,0.00,,,0.02,fowsr,2013-03-13 19:20:00,
2013-03-13 15:25:00,49.6,34.8,29.91,SE,135,3.1,4.5,46,0.00,,,0.02,fowsr,2013-03-13 19:25:00,
2013-03-13 15:30:00,49.3,34.5,29.92,East,90,2.2,4.5,46,0.00,,,0.02,fowsr,2013-03-13 19:30:00,
2013-03-13 15:35:00,50.0,35.2,29.91,East,90,3.8,6.0,46,0.00,,,0.02,fowsr,2013-03-13 19:35:00,
2013-03-13 15:40:00,49.8,35.8,29.92,East,90,1.6,3.1,48,0.00,,,0.02,fowsr,2013-03-13 19:40:00,
2013-03-13 15:45:00,50.2,36.8,29.91,East,90,3.1,5.4,50,0.00,,,0.02,fowsr,2013-03-13 19:45:00,
2013-03-13 15:50:00,50.5,37.5,29.92,South,180,3.8,6.0,51,0.00,,,0.02,fowsr,2013-03-13 19:50:00,
2013-03-13 15:55:00,50.7,37.3,29.92,East,90,3.8,6.9,50,0.00,,,0.02,fowsr,2013-03-13 19:55:00,
2013-03-13 16:00:00,50.5,37.2,29.92,SE,135,2.2,3.8,50,0.00,,,0.02,fowsr,2013-03-13 20:00:00,
2013-03-13 16:05:00,50.4,37.7,29.92,SE,135,2.2,3.8,52,0.00,,,0.02,fowsr,2013-03-13 20:05:00,
2013-03-13 16:10:00,49.8,37.9,29.92,East,90,4.5,6.9,54,0.00,,,0.02,fowsr,2013-03-13 20:10:00,
2013-03-13 16:15:00,48.9,37.1,29.92,NE,45,3.1,6.9,54,0.00,,,0.02,fowsr,2013-03-13 20:15:00,
2013-03-13 16:20:00,48.4,36.6,29.93,East,90,4.5,9.2,54,0.00,,,0.02,fowsr,2013-03-13 20:20:00,
2013-03-13 16:25:00,48.0,36.6,29.93,East,90,7.6,9.8,55,0.00,,,0.01,fowsr,2013-03-13 20:25:00,
2013-03-13 16:30:00,47.5,36.4,29.93,East,90,6.0,10.7,56,0.00,,,0.01,fowsr,2013-03-13 20:30:00,
2013-03-13 16:35:00,47.1,36.1,29.93,East,90,4.5,7.6,56,0.00,,,0.01,fowsr,2013-03-13 20:35:00,
2013-03-13 16:40:00,46.9,35.9,29.93,East,90,6.0,9.2,56,0.00,,,0.01,fowsr,2013-03-13 20:40:00,
2013-03-13 16:45:00,47.3,35.9,29.93,East,90,2.2,4.5,55,0.00,,,0.01,fowsr,2013-03-13 20:45:00,
2013-03-13 16:50:00,47.3,35.6,29.93,East,90,4.5,10.7,54,0.00,,,0.01,fowsr,2013-03-13 20:50:00,
2013-03-13 16:55:00,47.1,35.8,29.94,East,90,5.4,7.6,55,0.00,,,0.01,fowsr,2013-03-13 20:55:00,
2013-03-13 17:00:00,46.8,35.4,29.93,East,90,4.5,6.9,55,0.00,,,0.00,fowsr,2013-03-13 21:00:00,
2013-03-13 17:05:00,46.6,35.3,29.94,NE,45,6.0,11.4,55,0.00,,,0.00,fowsr,2013-03-13 21:05:00,
2013-03-13 17:10:00,45.9,35.6,29.95,SE,135,6.9,11.4,58,0.00,,,0.00,fowsr,2013-03-13 21:10:00,
2013-03-13 17:15:00,44.4,36.0,29.95,East,90,5.4,8.3,64,0.00,,,0.00,fowsr,2013-03-13 21:15:00,
2013-03-13 17:20:00,43.7,36.2,29.95,East,90,3.1,6.0,67,0.00,,,0.00,fowsr,2013-03-13 21:20:00,
2013-03-13 17:25:00,43.5,36.3,29.95,NE,45,5.4,7.6,68,0.00,,,0.00,fowsr,2013-03-13 21:25:00,
2013-03-13 17:30:00,43.5,36.3,29.95,SE,135,4.5,7.6,68,0.00,,,0.00,fowsr,2013-03-13 21:30:00,
2013-03-13 17:35:00,43.5,35.7,29.95,East,90,4.5,9.8,66,0.00,,,0.00,fowsr,2013-03-13 21:35:00,
2013-03-13 17:40:00,43.7,35.9,29.94,East,90,2.2,3.8,66,0.00,,,0.00,fowsr,2013-03-13 21:40:00,
2013-03-13 17:45:00,44.1,36.2,29.94,SE,135,4.5,8.3,66,0.00,,,0.00,fowsr,2013-03-13 21:45:00,
2013-03-13 17:50:00,45.0,36.5,29.94,East,90,4.5,7.6,64,0.00,,,0.00,fowsr,2013-03-13 21:50:00,
2013-03-13 17:55:00,45.3,36.6,29.94,East,90,3.1,4.5,63,0.00,,,0.00,fowsr,2013-03-13 21:55:00,
2013-03-13 18:00:00,45.5,36.8,29.94,East,90,1.6,3.1,63,0.00,,,0.00,fowsr,2013-03-13 22:00:00,
2013-03-13 18:05:00,45.5,36.8,29.94,East,90,1.6,3.8,63,0.00,,,0.00,fowsr,2013-03-13 22:05:00,
2013-03-13 18:10:00,45.3,36.3,29.94,East,90,2.2,3.8,62,0.00,,,0.00,fowsr,2013-03-13 22:10:00,
2013-03-13 18:15:00,45.0,36.2,29.94,East,90,2.2,4.5,63,0.00,,,0.00,fowsr,2013-03-13 22:15:00,
2013-03-13 18:20:00,44.6,35.9,29.94,East,90,1.6,2.2,63,0.00,,,0.00,fowsr,2013-03-13 22:20:00,
2013-03-13 18:25:00,44.4,36.3,29.94,East,90,3.8,5.4,65,0.00,,,0.00,fowsr,2013-03-13 22:25:00,
2013-03-13 18:30:00,44.2,36.1,29.95,NE,45,1.6,2.2,65,0.00,,,0.00,fowsr,2013-03-13 22:30:00,
2013-03-13 18:35:00,44.2,36.4,29.94,SE,135,0.7,1.6,66,0.00,,,0.00,fowsr,2013-03-13 22:35:00,
2013-03-13 18:40:00,43.9,36.1,29.95,SE,135,2.2,3.1,66,0.00,,,0.00,fowsr,2013-03-13 22:40:00,
2013-03-13 18:45:00,43.5,35.7,29.95,SE,135,1.6,3.1,66,0.00,,,0.00,fowsr,2013-03-13 22:45:00,
2013-03-13 18:50:00,43.2,35.4,29.95,East,90,0.0,0.7,66,0.00,,,0.00,fowsr,2013-03-13 22:50:00,
2013-03-13 18:55:00,42.8,35.1,29.94,East,90,0.7,1.6,66,0.00,,,0.00,fowsr,2013-03-13 22:55:00,
2013-03-13 19:00:00,42.4,35.3,29.95,NE,45,0.0,0.7,68,0.00,,,0.00,fowsr,2013-03-13 23:00:00,
2013-03-13 19:05:00,42.3,35.1,29.95,NE,45,0.0,0.7,68,0.00,,,0.00,fowsr,2013-03-13 23:05:00,
2013-03-13 19:10:00,41.9,34.7,29.95,NE,45,0.0,1.6,68,0.00,,,0.00,fowsr,2013-03-13 23:10:00,
2013-03-13 19:15:00,41.7,34.8,29.95,NE,45,0.7,2.2,69,0.00,,,0.00,fowsr,2013-03-13 23:15:00,
2013-03-13 19:20:00,41.5,34.7,29.95,NE,45,0.0,0.7,69,0.00,,,0.00,fowsr,2013-03-13 23:20:00,
2013-03-13 19:25:00,41.4,34.8,29.96,North,0,0.0,0.0,70,0.00,,,0.00,fowsr,2013-03-13 23:25:00,
2013-03-13 19:30:00,41.0,34.7,29.96,North,0,0.0,0.0,71,0.00,,,0.00,fowsr,2013-03-13 23:30:00,
2013-03-13 19:35:00,40.8,35.0,29.96,North,0,0.0,0.7,73,0.00,,,0.00,fowsr,2013-03-13 23:35:00,
2013-03-13 19:40:00,40.6,35.1,29.96,North,0,0.0,0.7,74,0.00,,,0.00,fowsr,2013-03-13 23:40:00,
2013-03-13 19:45:00,40.3,34.7,29.96,North,0,0.0,0.7,74,0.00,,,0.00,fowsr,2013-03-13 23:45:00,
2013-03-13 19:50:00,40.1,34.8,29.96,North,0,0.0,0.7,75,0.00,,,0.00,fowsr,2013-03-13 23:50:00,
2013-03-13 19:55:00,40.1,34.8,29.97,North,0,0.0,0.0,75,0.00,,,0.00,fowsr,2013-03-13 23:55:00,
2013-03-13 20:00:00,39.9,34.9,29.97,NE,45,0.0,0.7,76,0.00,,,0.00,fowsr,2013-03-14 00:00:00,
2013-03-13 20:05:00,39.7,34.7,29.96,SW,225,0.0,0.0,76,0.00,,,0.00,fowsr,2013-03-14 00:05:00,
2013-03-13 20:10:00,39.6,34.5,29.96,SW,225,0.0,0.0,76,0.00,,,0.00,fowsr,2013-03-14 00:10:00,
2013-03-13 20:15:00,39.4,34.6,29.97,NW,315,0.0,0.7,77,0.00,,,0.00,fowsr,2013-03-14 00:15:00,
2013-03-13 20:20:00,39.2,34.4,29.97,NE,45,0.0,0.7,77,0.00,,,0.00,fowsr,2013-03-14 00:20:00,
2013-03-13 20:25:00,38.8,34.3,29.97,NE,45,0.0,0.0,78,0.00,,,0.00,fowsr,2013-03-14 00:25:00,
2013-03-13 20:30:00,38.7,34.3,29.97,North,0,0.0,0.7,79,0.00,,,0.00,fowsr,2013-03-14 00:30:00,
2013-03-13 20:35:00,38.7,34.3,29.97,SW,225,0.7,1.6,79,0.00,,,0.00,fowsr,2013-03-14 00:35:00,
2013-03-13 20:40:00,38.5,34.2,29.98,West,270,0.7,1.6,79,0.00,,,0.00,fowsr,2013-03-14 00:40:00,
2013-03-13 20:45:00,38.3,34.0,29.98,West,270,0.0,0.7,79,0.00,,,0.00,fowsr,2013-03-14 00:45:00,
2013-03-13 20:50:00,38.1,33.8,29.98,South,180,0.0,1.6,79,0.00,,,0.00,fowsr,2013-03-14 00:50:00,
2013-03-13 20:55:00,38.3,34.2,29.98,SE,135,0.0,0.7,80,0.00,,,0.00,fowsr,2013-03-14 00:55:00,
2013-03-13 21:00:00,39.2,35.1,29.98,East,90,1.6,3.8,80,0.00,,,0.00,fowsr,2013-03-14 01:00:00,
2013-03-13 21:05:00,40.3,36.6,29.99,NE,45,2.2,3.8,82,0.00,,,0.00,fowsr,2013-03-14 01:05:00,
2013-03-13 21:15:00,41.4,37.2,29.99,East,90,0.7,1.6,80,0.00,,,0.00,fowsr,2013-03-14 01:15:00,
2013-03-13 21:20:00,41.4,36.5,29.99,East,90,2.2,3.8,77,0.00,,,0.00,fowsr,2013-03-14 01:20:00,
2013-03-13 21:25:00,41.7,35.9,29.99,East,90,2.2,5.4,73,0.00,,,0.00,fowsr,2013-03-14 01:25:00,
2013-03-13 21:30:00,42.1,34.6,29.99,SE,135,2.2,3.8,67,0.00,,,0.00,fowsr,2013-03-14 01:30:00,
2013-03-13 21:35:00,42.3,34.0,29.99,East,90,3.1,6.0,64,0.00,,,0.00,fowsr,2013-03-14 01:35:00,
2013-03-13 21:40:00,42.4,33.9,29.99,SE,135,3.1,5.4,63,0.00,,,0.00,fowsr,2013-03-14 01:40:00,
2013-03-13 21:45:00,42.6,34.0,29.99,East,90,2.2,5.4,63,0.00,,,0.00,fowsr,2013-03-14 01:45:00,
2013-03-13 21:50:00,42.6,34.0,30.00,South,180,2.2,3.8,63,0.00,,,0.00,fowsr,2013-03-14 01:50:00,
2013-03-13 21:55:00,42.4,33.9,30.00,SE,135,2.2,3.8,63,0.00,,,0.00,fowsr,2013-03-14 01:55:00,
2013-03-13 22:00:00,42.4,33.6,29.99,SE,135,5.4,11.4,62,0.00,,,0.00,fowsr,2013-03-14 02:00:00,
2013-03-13 22:05:00,42.4,32.7,29.99,SE,135,4.5,6.9,59,0.00,,,0.00,fowsr,2013-03-14 02:05:00,
2013-03-13 22:10:00,42.4,32.7,29.99,SE,135,3.8,6.9,59,0.00,,,0.00,fowsr,2013-03-14 02:10:00,
2013-03-13 22:20:00,42.4,33.3,30.00,East,90,3.8,7.6,61,0.00,,,0.00,fowsr,2013-03-14 02:20:00,
2013-03-13 22:25:00,42.3,33.1,30.00,SE,135,5.4,11.4,61,0.00,,,0.00,fowsr,2013-03-14 02:25:00,
2013-03-13 22:30:00,42.3,31.3,30.00,South,180,4.5,10.7,55,0.00,,,0.00,fowsr,2013-03-14 02:30:00,
2013-03-13 22:35:00,42.3,31.6,30.01,SE,135,5.4,12.1,56,0.00,,,0.00,fowsr,2013-03-14 02:35:00,
2013-03-13 22:45:00,42.3,31.6,30.01,SW,225,4.5,7.6,56,0.00,,,0.00,fowsr,2013-03-14 02:45:00,
2013-03-13 22:55:00,42.1,31.4,30.01,East,90,5.4,13.0,56,0.00,,,0.00,fowsr,2013-03-14 02:55:00,
2013-03-13 23:00:00,42.1,31.8,30.02,SE,135,4.5,9.8,57,0.00,,,0.00,fowsr,2013-03-14 03:00:00,
2013-03-13 23:05:00,41.9,31.9,30.01,East,90,4.5,9.2,58,0.00,,,0.00,fowsr,2013-03-14 03:05:00,
2013-03-13 23:10:00,41.9,31.9,30.02,East,90,4.5,7.6,58,0.00,,,0.00,fowsr,2013-03-14 03:10:00,
2013-03-13 23:15:00,41.7,30.8,30.02,SE,135,5.4,12.1,55,0.00,,,0.00,fowsr,2013-03-14 03:15:00,
2013-03-13 23:20:00,41.7,30.5,30.02,SE,135,6.0,9.8,54,0.00,,,0.00,fowsr,2013-03-14 03:20:00,
2013-03-13 23:25:00,41.5,30.0,30.02,East,90,3.8,9.2,53,0.00,,,0.00,fowsr,2013-03-14 03:25:00,
2013-03-13 23:30:00,41.5,30.0,30.02,East,90,6.0,9.2,53,0.00,,,0.00,fowsr,2013-03-14 03:30:00,
2013-03-13 23:35:00,41.4,29.5,30.02,South,180,8.3,13.0,52,0.00,,,0.00,fowsr,2013-03-14 03:35:00,
2013-03-13 23:40:00,41.2,29.0,30.02,SE,135,9.2,13.6,51,0.00,,,0.00,fowsr,2013-03-14 03:40:00,
2013-03-13 23:45:00,41.2,28.3,30.02,East,90,7.6,12.1,49,0.00,,,0.00,fowsr,2013-03-14 03:45:00,
2013-03-13 23:50:00,41.0,28.5,30.02,SE,135,9.2,11.4,50,0.00,,,0.00,fowsr,2013-03-14 03:50:00,
2013-03-13 23:55:00,40.8,29.0,30.02,East,90,5.4,7.6,52,0.00,,,0.00,fowsr,2013-03-14 03:55:00,